Cullar-Vega, Spain
Current Conditions -  °F | °C
As of 7:30 PM on Friday 24 Oct 2014 (Local Time) from LEGR Reporting Station
Clear Clear  
Wind Chill: 73°   Ceiling: Unl
Heat Index: 73°   Visibility: 6mi
Dew Point: 46°   Wind: 6mph
Humidity: 38%   Direction: 160°SSE
Pressure: 30.03"   Gusts: NA
Location:  37.15°N, 3.67°W
Report Text: LEGR 241730Z 16005KT CAVOK 23/08 Q1017
Loading
Personal Weather Stations






























Interactive Weather Map New forecast layout! Learn more

10-Day Weather Forecast

Advertisements
Track Severe Weather on mobile